createdAt,value
2022-11-10T00:01:11.148Z,89.66
2022-11-10T00:03:42.490Z,89.75
2022-11-10T00:06:11.853Z,89.43
2022-11-10T00:08:40.038Z,89.24
2022-11-10T00:11:09.208Z,90.64
2022-11-10T00:13:59.851Z,90.27
2022-11-10T00:16:46.696Z,89.92
2022-11-10T00:19:14.838Z,89.98
2022-11-10T00:21:42.900Z,90.10
2022-11-10T00:24:10.910Z,89.25
2022-11-10T00:26:38.789Z,89.53
2022-11-10T00:29:06.667Z,90.06
2022-11-10T00:31:37.993Z,89.96
2022-11-10T00:34:06.371Z,88.80
2022-11-10T00:36:35.655Z,89.35
2022-11-10T00:39:03.775Z,88.85
2022-11-10T00:41:35.918Z,89.44
2022-11-10T00:44:03.834Z,88.83
2022-11-10T00:46:31.752Z,89.22
2022-11-10T00:49:00.994Z,89.08
2022-11-10T00:51:30.501Z,89.26
2022-11-10T00:53:58.505Z,89.65
2022-11-10T00:56:26.827Z,89.44
2022-11-10T00:58:54.728Z,89.26
2022-11-10T01:01:25.523Z,89.25
2022-11-10T01:03:54.331Z,88.90
2022-11-10T01:06:23.733Z,88.64
2022-11-10T01:08:51.837Z,88.70
2022-11-10T01:11:22.118Z,88.23
2022-11-10T01:13:53.903Z,88.66
2022-11-10T01:16:23.812Z,88.45
2022-11-10T01:18:53.101Z,88.02
2022-11-10T01:21:23.305Z,88.04
2022-11-10T01:24:22.859Z,88.06
2022-11-10T01:26:54.321Z,87.81
2022-11-10T01:29:22.868Z,87.98
2022-11-10T01:31:50.706Z,88.00
2022-11-10T01:34:18.707Z,88.14
2022-11-10T01:36:48.003Z,87.31
2022-11-10T01:39:15.828Z,88.04
2022-11-10T01:41:43.938Z,87.11
2022-11-10T01:44:14.633Z,87.65
2022-11-10T01:46:42.489Z,87.15
2022-11-10T01:49:11.411Z,87.91
2022-11-10T01:51:43.210Z,87.95
2022-11-10T01:54:16.574Z,88.48
2022-11-10T01:56:49.130Z,88.12
2022-11-10T01:59:21.234Z,87.67
2022-11-10T02:01:51.984Z,88.29
2022-11-10T02:04:22.492Z,88.46
2022-11-10T02:06:51.798Z,88.37
2022-11-10T02:09:21.406Z,88.29
2022-11-10T02:11:55.055Z,89.21
2022-11-10T02:14:23.222Z,88.32
2022-11-10T02:16:51.263Z,88.27
2022-11-10T02:19:22.679Z,88.60
2022-11-10T02:21:51.910Z,88.59
2022-11-10T02:24:20.180Z,88.34
2022-11-10T02:26:51.729Z,88.66
2022-11-10T02:29:19.873Z,88.64
2022-11-10T02:31:47.764Z,89.04
2022-11-10T02:34:15.669Z,88.48
2022-11-10T02:36:43.527Z,88.95
2022-11-10T02:39:12.872Z,89.02
2022-11-10T02:41:41.072Z,88.26
2022-11-10T02:44:09.393Z,88.85
2022-11-10T02:46:37.493Z,88.74
2022-11-10T02:49:05.641Z,88.51
2022-11-10T02:51:33.458Z,88.75
2022-11-10T02:54:01.744Z,88.39
2022-11-10T02:56:30.918Z,88.59
2022-11-10T02:58:59.461Z,88.85
2022-11-10T03:01:27.390Z,89.12
2022-11-10T03:03:55.981Z,88.71
2022-11-10T03:06:25.598Z,88.33
2022-11-10T03:09:27.150Z,88.71
2022-11-10T03:12:00.574Z,88.65
2022-11-10T03:14:31.053Z,87.90
2022-11-10T03:17:03.680Z,88.46
2022-11-10T03:19:33.019Z,88.41
2022-11-10T03:22:02.891Z,88.24
2022-11-10T03:24:32.481Z,88.46
2022-11-10T03:27:06.037Z,88.26
2022-11-10T03:29:35.811Z,88.32
2022-11-10T03:32:08.274Z,88.47
2022-11-10T03:34:37.748Z,88.32
2022-11-10T03:37:05.724Z,87.73
2022-11-10T03:39:33.885Z,88.88
2022-11-10T03:42:01.832Z,89.08
2022-11-10T03:44:32.256Z,89.46
2022-11-10T03:47:03.346Z,89.45
2022-11-10T03:49:35.941Z,88.81
2022-11-10T03:52:06.024Z,88.69
2022-11-10T03:54:33.921Z,88.94
2022-11-10T03:57:01.816Z,88.63
2022-11-10T03:59:31.294Z,88.53
2022-11-10T04:01:59.286Z,88.38
2022-11-10T04:04:44.747Z,88.98
2022-11-10T04:07:31.466Z,88.54
2022-11-10T04:09:59.405Z,89.02
2022-11-10T04:12:44.581Z,89.19
2022-11-10T04:15:32.133Z,89.11
2022-11-10T04:48:05.592Z,89.66
2022-11-10T04:50:35.537Z,89.08
2022-11-10T04:53:03.348Z,89.05
2022-11-10T04:55:31.164Z,89.10
2022-11-10T04:57:59.083Z,88.75
2022-11-10T05:00:27.220Z,89.07
2022-11-10T05:02:55.137Z,90.08
2022-11-10T05:05:22.968Z,89.77
2022-11-10T05:07:52.062Z,89.49
2022-11-10T05:10:20.352Z,89.58
2022-11-10T05:12:48.103Z,89.64
2022-11-10T05:15:15.954Z,89.63
2022-11-10T05:17:43.714Z,89.77
2022-11-10T05:20:11.581Z,89.45
2022-11-10T05:22:39.330Z,90.27
2022-11-10T05:25:09.426Z,90.08
2022-11-10T05:27:37.244Z,89.92
2022-11-10T05:30:05.849Z,90.16
2022-11-10T05:32:33.732Z,90.34
2022-11-10T05:35:01.550Z,90.26
2022-11-10T05:37:29.345Z,89.76
2022-11-10T05:39:57.180Z,90.21
2022-11-10T05:42:27.523Z,90.40
2022-11-10T05:44:55.376Z,90.78
2022-11-10T05:47:23.320Z,90.64
2022-11-10T05:49:51.162Z,90.81
2022-11-10T05:52:19.083Z,90.38
2022-11-10T05:54:47.004Z,91.08
2022-11-10T05:57:14.825Z,90.69
2022-11-10T05:59:44.143Z,91.53
2022-11-10T06:02:12.197Z,90.77
2022-11-10T06:04:40.036Z,91.20
2022-11-10T06:07:09.019Z,90.87
2022-11-10T06:09:37.956Z,91.05
2022-11-10T06:12:06.166Z,91.38
2022-11-10T06:14:33.958Z,91.65
2022-11-10T06:17:03.278Z,90.97
2022-11-10T06:19:31.194Z,91.18
2022-11-10T06:22:03.598Z,91.30
2022-11-10T06:24:34.358Z,91.46
2022-11-10T06:27:02.324Z,91.20
2022-11-10T06:29:30.232Z,90.73
2022-11-10T06:31:58.904Z,90.22
2022-11-10T06:34:29.029Z,91.27
2022-11-10T06:36:57.029Z,91.38
2022-11-10T06:39:24.917Z,91.53
2022-11-10T06:41:52.821Z,91.39
2022-11-10T06:44:40.490Z,91.55
2022-11-10T06:47:10.332Z,92.01
2022-11-10T06:49:39.498Z,91.70
2022-11-10T06:52:07.373Z,91.41
2022-11-10T06:54:35.271Z,91.90
2022-11-10T06:57:03.070Z,91.24
2022-11-10T06:59:30.887Z,90.79
2022-11-10T07:01:58.785Z,91.26
2022-11-10T07:04:26.575Z,91.99
2022-11-10T07:06:55.969Z,91.61
2022-11-10T07:09:23.805Z,91.65
2022-11-10T07:11:51.679Z,90.73
2022-11-10T07:14:19.682Z,90.47
2022-11-10T07:16:55.998Z,90.79
2022-11-10T07:19:23.815Z,90.24
2022-11-10T07:21:51.855Z,89.94
2022-11-10T07:24:21.050Z,89.68
2022-11-10T07:26:49.014Z,90.13
2022-11-10T07:29:16.982Z,89.87
2022-11-10T07:31:44.819Z,89.79
2022-11-10T07:34:12.753Z,89.65
2022-11-10T07:36:54.500Z,90.39
2022-11-10T07:39:24.125Z,89.27
2022-11-10T07:41:52.782Z,90.14
2022-11-10T07:44:22.430Z,89.63
2022-11-10T07:46:50.398Z,88.84
2022-11-10T07:49:18.267Z,89.19
2022-11-10T07:51:46.128Z,89.10
2022-11-10T07:54:14.060Z,88.70
2022-11-10T07:56:43.807Z,88.08
2022-11-10T07:59:11.645Z,88.32
2022-11-10T08:01:39.543Z,88.05
2022-11-10T08:04:07.420Z,87.30
2022-11-10T08:06:36.731Z,87.67
2022-11-10T08:09:05.065Z,87.48
2022-11-10T08:11:32.906Z,87.97
2022-11-10T08:14:02.112Z,88.02
2022-11-10T08:16:29.983Z,87.66
2022-11-10T08:18:57.952Z,87.41
2022-11-10T08:21:26.043Z,87.16
2022-11-10T08:23:54.139Z,86.92
2022-11-10T08:26:22.191Z,85.64
2022-11-10T08:28:50.075Z,85.82
2022-11-10T08:31:19.253Z,85.95
2022-11-10T08:33:47.321Z,85.44
2022-11-10T08:36:15.296Z,85.04
2022-11-10T08:38:43.322Z,85.91
2022-11-10T08:41:11.151Z,85.80
2022-11-10T08:43:39.174Z,85.35
2022-11-10T08:46:09.631Z,84.31
2022-11-10T08:48:39.169Z,84.42
2022-11-10T08:51:07.103Z,83.14
2022-11-10T08:53:34.987Z,83.74
2022-11-10T08:56:02.994Z,83.67
2022-11-10T08:58:30.967Z,83.13
2022-11-10T09:00:58.833Z,82.03
2022-11-10T09:03:27.252Z,82.72
2022-11-10T09:05:58.985Z,82.75
2022-11-10T09:08:27.661Z,82.54
2022-11-10T09:10:55.753Z,81.94
2022-11-10T09:13:28.995Z,82.39
2022-11-10T09:15:57.886Z,81.47
2022-11-10T09:18:25.761Z,81.68
2022-11-10T09:20:53.547Z,81.18
2022-11-10T09:23:24.828Z,81.02
2022-11-10T09:25:54.708Z,80.44
2022-11-10T09:28:23.908Z,81.15
2022-11-10T09:30:54.129Z,80.10
2022-11-10T09:33:22.562Z,80.03
2022-11-10T09:35:50.943Z,79.72
2022-11-10T09:38:18.851Z,79.26
2022-11-10T09:41:00.884Z,79.99
2022-11-10T09:43:34.403Z,79.26
2022-11-10T09:46:10.119Z,77.68
2022-11-10T09:48:42.991Z,78.37
2022-11-10T09:51:16.588Z,78.64
2022-11-10T09:53:51.504Z,78.55
2022-11-10T09:56:27.183Z,79.04
2022-11-10T09:58:55.311Z,78.39
2022-11-10T10:01:31.646Z,78.16
2022-11-10T10:04:08.992Z,77.89
2022-11-10T10:07:09.713Z,76.71
2022-11-10T10:09:42.315Z,76.89
2022-11-10T10:12:24.665Z,75.56
2022-11-10T10:15:10.782Z,74.35
2022-11-10T10:17:46.749Z,75.98
2022-11-10T10:20:24.689Z,75.28
2022-11-10T10:23:05.145Z,74.65
2022-11-10T10:25:36.113Z,74.51
2022-11-10T10:28:14.255Z,75.19
2022-11-10T10:30:46.326Z,74.96
2022-11-10T10:33:17.914Z,74.26
2022-11-10T10:35:47.869Z,75.17
2022-11-10T10:38:23.488Z,75.06
2022-11-10T10:40:53.213Z,75.06
2022-11-10T10:43:22.480Z,75.22
2022-11-10T10:46:06.584Z,74.43
2022-11-10T10:48:34.959Z,72.49
2022-11-10T10:51:02.843Z,72.77
2022-11-10T10:53:30.827Z,72.24
2022-11-10T10:56:02.374Z,72.05
2022-11-10T10:58:34.202Z,72.79
2022-11-10T11:01:06.948Z,71.21
2022-11-10T11:03:43.399Z,70.66
2022-11-10T11:06:21.157Z,70.38
2022-11-10T11:08:59.667Z,71.07
2022-11-10T11:11:31.402Z,69.90
2022-11-10T11:14:22.904Z,70.51
2022-11-10T11:16:53.010Z,70.98
2022-11-10T11:19:23.229Z,70.23
2022-11-10T11:22:04.977Z,71.89
2022-11-10T11:24:40.618Z,71.50
2022-11-10T11:27:15.536Z,71.66
2022-11-10T11:29:56.666Z,71.23
2022-11-10T11:32:49.410Z,73.06
2022-11-10T11:35:25.545Z,72.93
2022-11-10T11:38:06.750Z,72.90
2022-11-10T11:40:49.470Z,72.79
2022-11-10T11:43:40.602Z,73.46
2022-11-10T11:46:17.782Z,73.36
2022-11-10T11:49:02.500Z,72.80
2022-11-10T11:51:39.912Z,72.66
2022-11-10T11:54:29.389Z,72.20
2022-11-10T11:57:09.879Z,71.22
2022-11-10T11:59:58.152Z,69.55
2022-11-10T12:02:53.011Z,68.88
2022-11-10T12:05:36.596Z,68.10
2022-11-10T12:08:15.921Z,69.06
2022-11-10T12:10:55.899Z,66.75
2022-11-10T12:13:37.708Z,67.17
2022-11-10T12:16:12.975Z,67.46
2022-11-10T12:18:49.839Z,67.44
2022-11-10T12:21:26.697Z,68.95
2022-11-10T12:24:12.702Z,66.66
2022-11-10T12:26:48.389Z,67.96
2022-11-10T12:29:24.994Z,67.51
2022-11-10T12:31:56.942Z,69.06
2022-11-10T12:34:37.589Z,67.79
2022-11-10T12:37:09.092Z,66.82
2022-11-10T12:39:50.429Z,65.28
2022-11-10T12:42:22.920Z,65.50
2022-11-10T12:45:00.519Z,65.66
2022-11-10T12:47:32.866Z,64.83
2022-11-10T12:50:27.719Z,64.75
2022-11-10T12:52:59.201Z,64.04
2022-11-10T12:55:35.597Z,64.63
2022-11-10T12:58:05.400Z,65.72
2022-11-10T13:00:40.030Z,64.03
2022-11-10T13:03:15.959Z,65.71
2022-11-10T13:05:46.222Z,66.18
2022-11-10T13:08:27.816Z,65.81
2022-11-10T13:10:58.469Z,65.91
2022-11-10T13:13:26.506Z,66.19
2022-11-10T13:15:57.075Z,65.70
2022-11-10T13:18:42.192Z,65.65
2022-11-10T13:21:11.426Z,65.60
2022-11-10T13:24:14.583Z,65.60
2022-11-10T13:26:52.568Z,65.33
2022-11-10T13:29:29.462Z,65.53
2022-11-10T13:31:58.961Z,65.65
2022-11-10T13:34:29.816Z,65.41
2022-11-10T13:37:00.252Z,64.97
2022-11-10T13:39:31.893Z,65.50
2022-11-10T13:42:17.720Z,64.93
2022-11-10T13:44:47.642Z,64.85
2022-11-10T13:47:53.909Z,65.27
2022-11-10T13:50:33.638Z,65.39
2022-11-10T13:53:17.016Z,64.59
2022-11-10T13:56:01.679Z,65.78
2022-11-10T13:58:32.537Z,66.61
2022-11-10T14:01:28.990Z,65.88
2022-11-10T14:04:00.389Z,66.34
2022-11-10T14:06:40.229Z,66.20
2022-11-10T14:09:19.242Z,66.58
2022-11-10T14:11:52.109Z,66.04
2022-11-10T14:14:24.559Z,65.82
2022-11-10T14:16:54.129Z,65.68
2022-11-10T14:19:32.420Z,65.45
2022-11-10T14:22:05.364Z,64.92
2022-11-10T14:24:39.384Z,65.52
2022-11-10T14:27:14.115Z,66.30
2022-11-10T14:29:43.008Z,65.88
2022-11-10T14:32:18.855Z,65.75
2022-11-10T14:34:49.598Z,65.90
2022-11-10T14:37:24.215Z,65.88
2022-11-10T14:39:56.549Z,65.65
2022-11-10T14:42:26.935Z,65.72
2022-11-10T14:45:17.333Z,65.06
2022-11-10T14:47:53.079Z,65.61
2022-11-10T14:50:24.781Z,64.61
2022-11-10T14:52:56.433Z,65.55
2022-11-10T14:55:29.576Z,65.70
2022-11-10T14:58:04.039Z,65.20
2022-11-10T15:00:37.349Z,65.36
2022-11-10T15:03:07.507Z,66.11
2022-11-10T15:05:35.979Z,65.73
2022-11-10T15:08:05.386Z,66.52
2022-11-10T15:10:48.434Z,66.57
2022-11-10T15:13:21.223Z,66.71
2022-11-10T15:15:49.162Z,67.48
2022-11-10T15:18:26.928Z,67.79
2022-11-10T15:21:02.321Z,67.84
2022-11-10T15:23:33.986Z,67.85
2022-11-10T15:26:03.533Z,68.07
2022-11-10T15:28:33.765Z,68.29
2022-11-10T15:31:03.606Z,68.94
2022-11-10T15:33:34.975Z,69.10
2022-11-10T15:36:18.007Z,70.00
2022-11-10T15:39:01.585Z,69.85
2022-11-10T15:41:33.826Z,69.49
2022-11-10T15:44:29.989Z,70.01
2022-11-10T15:47:00.134Z,70.33
2022-11-10T15:49:31.988Z,70.61
2022-11-10T15:52:04.045Z,71.44
2022-11-10T15:54:38.636Z,71.70
2022-11-10T15:57:12.671Z,71.54
2022-11-10T15:59:40.680Z,71.61
2022-11-10T16:02:21.200Z,71.89
2022-11-10T16:04:53.406Z,72.51
2022-11-10T16:07:26.042Z,72.27
2022-11-10T16:09:54.333Z,72.86
2022-11-10T16:12:24.377Z,72.72
2022-11-10T16:14:54.548Z,73.30
2022-11-10T16:17:23.555Z,73.02
2022-11-10T16:19:51.450Z,73.11
2022-11-10T16:22:20.785Z,73.47
2022-11-10T16:24:57.915Z,73.57
2022-11-10T16:27:33.023Z,73.74
2022-11-10T16:30:01.497Z,74.29
2022-11-10T16:32:29.444Z,74.04
2022-11-10T16:34:57.346Z,73.97
2022-11-10T16:37:25.280Z,74.52
2022-11-10T16:39:53.142Z,73.57
2022-11-10T16:42:20.983Z,73.89
2022-11-10T16:44:50.262Z,74.05
2022-11-10T16:47:20.240Z,74.26
2022-11-10T16:49:49.203Z,74.43
2022-11-10T16:52:17.850Z,74.08
2022-11-10T16:54:45.986Z,74.42
2022-11-10T16:57:15.379Z,74.51
2022-11-10T16:59:45.612Z,74.70
2022-11-10T17:02:31.502Z,74.56
2022-11-10T17:04:59.593Z,75.00
2022-11-10T17:07:29.325Z,75.06
2022-11-10T17:09:57.853Z,75.27
2022-11-10T17:12:25.829Z,75.77
2022-11-10T17:14:53.760Z,75.94
2022-11-10T17:17:21.936Z,76.02
2022-11-10T17:19:52.266Z,75.93
2022-11-10T17:22:22.804Z,76.15
2022-11-10T17:24:57.345Z,76.16
2022-11-10T17:27:26.267Z,75.90
2022-11-10T17:29:54.257Z,75.51
2022-11-10T17:32:43.138Z,75.36
2022-11-10T17:35:11.930Z,75.71
2022-11-10T17:37:40.957Z,76.66
2022-11-10T17:40:19.232Z,75.78
2022-11-10T17:42:47.722Z,76.42
2022-11-10T17:45:23.456Z,76.64
2022-11-10T17:47:51.889Z,76.79
2022-11-10T17:50:23.632Z,77.25
2022-11-10T17:52:51.626Z,77.16
2022-11-10T17:55:27.339Z,77.35
2022-11-10T17:57:58.113Z,77.15
2022-11-10T18:00:28.339Z,77.06
2022-11-10T18:02:56.694Z,77.04
2022-11-10T18:05:33.611Z,77.26
2022-11-10T18:08:02.068Z,77.57
2022-11-10T18:10:30.123Z,77.64
2022-11-10T18:12:58.970Z,77.99
2022-11-10T18:15:26.877Z,77.94
2022-11-10T18:18:00.908Z,78.17
2022-11-10T18:20:30.846Z,77.75
2022-11-10T18:22:58.796Z,77.66
2022-11-10T18:25:26.788Z,78.49
2022-11-10T18:27:54.798Z,78.26
2022-11-10T18:30:23.020Z,79.12
2022-11-10T18:32:51.152Z,78.97
2022-11-10T18:35:20.661Z,79.12
2022-11-10T18:37:49.990Z,79.10
2022-11-10T18:40:17.941Z,79.17
2022-11-10T18:42:45.921Z,79.66
2022-11-10T18:45:14.175Z,79.53
2022-11-10T18:47:42.222Z,80.26
2022-11-10T18:50:11.113Z,80.54
2022-11-10T18:52:38.955Z,79.82
2022-11-10T18:55:10.230Z,80.18
2022-11-10T18:57:38.328Z,80.73
2022-11-10T19:00:07.874Z,81.31
2022-11-10T19:02:36.574Z,80.69
2022-11-10T19:05:05.189Z,81.23
2022-11-10T19:07:33.130Z,81.53
2022-11-10T19:10:01.139Z,81.61
2022-11-10T19:12:32.000Z,81.19
2022-11-10T19:15:00.688Z,81.39
2022-11-10T19:17:28.722Z,81.64
2022-11-10T19:19:57.064Z,81.43
2022-11-10T19:22:25.154Z,81.87
2022-11-10T19:25:07.747Z,82.02
2022-11-10T19:27:37.866Z,82.03
2022-11-10T19:30:06.665Z,82.93
2022-11-10T19:32:34.735Z,82.23
2022-11-10T19:35:03.805Z,82.57
2022-11-10T19:37:35.006Z,82.67
2022-11-10T19:40:04.039Z,82.86
2022-11-10T19:42:33.027Z,82.80
2022-11-10T19:45:03.556Z,83.72
2022-11-10T19:47:32.214Z,83.51
2022-11-10T19:50:00.240Z,83.59
2022-11-10T19:52:28.286Z,83.02
2022-11-10T19:54:56.157Z,83.27
2022-11-10T19:57:24.360Z,84.01
2022-11-10T19:59:52.183Z,83.76
2022-11-10T20:02:21.687Z,83.70
2022-11-10T20:05:07.632Z,83.89
2022-11-10T20:07:53.084Z,83.39
2022-11-10T20:10:20.970Z,84.00
2022-11-10T20:12:49.162Z,83.66
2022-11-10T20:15:17.616Z,83.29
2022-11-10T20:17:46.917Z,83.07
2022-11-10T20:20:15.285Z,83.24
2022-11-10T20:22:43.376Z,83.69
2022-11-10T20:25:11.837Z,83.50
2022-11-10T20:27:39.933Z,83.34
2022-11-10T20:30:09.248Z,83.48
2022-11-10T20:32:37.791Z,82.79
2022-11-10T20:35:08.315Z,83.28
2022-11-10T20:37:36.307Z,83.67
2022-11-10T20:40:10.412Z,83.31
2022-11-10T20:42:52.323Z,83.27
2022-11-10T20:45:20.290Z,82.91
2022-11-10T20:47:48.163Z,83.49
2022-11-10T20:50:23.055Z,83.42
2022-11-10T20:52:52.373Z,84.41
2022-11-10T20:55:43.801Z,84.54
2022-11-10T20:58:08.461Z,83.89
2022-11-10T21:00:36.480Z,84.50
2022-11-10T21:03:04.545Z,84.71
2022-11-10T21:05:33.930Z,84.67
2022-11-10T21:08:01.932Z,84.62
2022-11-10T21:10:30.038Z,84.30
2022-11-10T21:12:58.238Z,84.91
2022-11-10T21:15:26.421Z,85.27
2022-11-10T21:17:54.383Z,85.14
2022-11-10T21:20:22.358Z,85.33
2022-11-10T21:22:51.656Z,85.98
2022-11-10T21:25:20.662Z,85.28
2022-11-10T21:27:48.881Z,85.50
2022-11-10T21:30:22.989Z,85.69
2022-11-10T21:32:50.932Z,85.55
2022-11-10T21:35:20.163Z,85.68
2022-11-10T21:37:48.074Z,86.16
2022-11-10T21:40:17.662Z,85.30
2022-11-10T21:42:45.662Z,85.55
2022-11-10T21:45:13.689Z,85.90
2022-11-10T21:47:41.592Z,85.61
2022-11-10T21:50:09.668Z,85.94
2022-11-10T21:52:37.798Z,86.61
2022-11-10T21:55:06.823Z,86.25
2022-11-10T21:57:36.437Z,85.98
2022-11-10T22:00:05.301Z,86.21
2022-11-10T22:02:33.118Z,85.94
2022-11-10T22:05:00.940Z,86.33
2022-11-10T22:07:29.003Z,86.17
2022-11-10T22:10:14.715Z,86.46
2022-11-10T22:13:01.701Z,85.91
2022-11-10T22:15:46.842Z,86.27
2022-11-10T22:18:34.488Z,86.10
2022-11-10T22:21:02.950Z,86.63
2022-11-10T22:23:48.124Z,87.17
2022-11-10T22:26:16.439Z,87.35
2022-11-10T22:28:46.553Z,87.57
2022-11-10T22:31:14.532Z,87.23
2022-11-10T22:33:43.966Z,87.41
2022-11-10T22:36:14.837Z,87.23
2022-11-10T22:38:43.308Z,87.23
2022-11-10T22:41:32.269Z,87.50
2022-11-10T22:44:08.468Z,87.69
2022-11-10T22:46:38.564Z,87.38
2022-11-10T22:49:08.660Z,87.56
2022-11-10T22:51:37.807Z,87.82
2022-11-10T22:54:06.895Z,87.24
2022-11-10T22:56:36.087Z,87.08
2022-11-10T22:59:05.898Z,87.43
2022-11-10T23:01:34.317Z,87.09
2022-11-10T23:04:02.928Z,87.67
2022-11-10T23:06:31.476Z,87.81
2022-11-10T23:09:00.481Z,87.98
2022-11-10T23:11:30.826Z,87.68
2022-11-10T23:13:59.981Z,88.00
2022-11-10T23:16:33.283Z,88.57
2022-11-10T23:19:02.347Z,88.02
2022-11-10T23:21:32.221Z,88.37
2022-11-10T23:24:02.699Z,88.88
2022-11-10T23:26:31.064Z,88.83
2022-11-10T23:28:58.937Z,88.96
2022-11-10T23:31:30.754Z,89.40
2022-11-10T23:33:58.751Z,89.42
2022-11-10T23:36:27.805Z,89.55
2022-11-10T23:38:56.434Z,89.54
2022-11-10T23:41:26.110Z,88.82
2022-11-10T23:43:54.444Z,88.27
2022-11-10T23:46:22.714Z,88.53
2022-11-10T23:48:52.441Z,88.74
2022-11-10T23:51:25.563Z,89.25
2022-11-10T23:53:55.062Z,89.35
